sensor_id;sensor_type;location;lat;lon;timestamp;P1;durP1;ratioP1;P2;durP2;ratioP2
3613;SDS011;1821;50.936;6.854;2023-12-04T00:00:02;15.63;;;11.57;;
3613;SDS011;1821;50.936;6.854;2023-12-04T00:00:45;16.27;;;11.82;;
3613;SDS011;1821;50.936;6.854;2023-12-04T00:01:27;14.70;;;11.85;;
3613;SDS011;1821;50.936;6.854;2023-12-04T00:02:11;15.05;;;11.27;;
3613;SDS011;1821;50.936;6.854;2023-12-04T00:02:52;17.20;;;11.63;;
3613;SDS011;1821;50.936;6.854;2023-12-04T00:03:35;17.60;;;11.95;;
3613;SDS011;1821;50.936;6.854;2023-12-04T00:04:20;15.38;;;12.00;;
3613;SDS011;1821;50.936;6.854;2023-12-04T00:05:02;15.50;;;12.50;;
3613;SDS011;1821;50.936;6.854;2023-12-04T00:05:45;16.35;;;11.60;;
3613;SDS011;1821;50.936;6.854;2023-12-04T00:06:30;15.20;;;11.10;;
3613;SDS011;1821;50.936;6.854;2023-12-04T00:07:12;15.73;;;11.40;;
3613;SDS011;1821;50.936;6.854;2023-12-04T00:07:54;15.35;;;11.20;;
3613;SDS011;1821;50.936;6.854;2023-12-04T00:08:36;16.88;;;12.20;;
3613;SDS011;1821;50.936;6.854;2023-12-04T00:09:19;16.73;;;12.13;;
3613;SDS011;1821;50.936;6.854;2023-12-04T00:10:01;17.58;;;11.23;;
3613;SDS011;1821;50.936;6.854;2023-12-04T00:10:43;19.63;;;12.00;;
3613;SDS011;1821;50.936;6.854;2023-12-04T00:11:25;16.15;;;11.68;;
3613;SDS011;1821;50.936;6.854;2023-12-04T00:12:09;15.35;;;11.48;;
3613;SDS011;1821;50.936;6.854;2023-12-04T00:12:51;15.00;;;11.27;;
3613;SDS011;1821;50.936;6.854;2023-12-04T00:13:33;16.95;;;11.80;;
3613;SDS011;1821;50.936;6.854;2023-12-04T00:14:16;14.95;;;11.45;;
3613;SDS011;1821;50.936;6.854;2023-12-04T00:14:58;15.88;;;12.00;;
3613;SDS011;1821;50.936;6.854;2023-12-04T00:15:41;16.30;;;11.90;;
3613;SDS011;1821;50.936;6.854;2023-12-04T00:16:23;15.38;;;11.50;;
3613;SDS011;1821;50.936;6.854;2023-12-04T00:17:05;15.50;;;11.80;;
3613;SDS011;1821;50.936;6.854;2023-12-04T00:17:47;16.65;;;11.52;;
3613;SDS011;1821;50.936;6.854;2023-12-04T00:18:29;15.77;;;11.90;;
3613;SDS011;1821;50.936;6.854;2023-12-04T00:19:12;16.15;;;11.70;;
3613;SDS011;1821;50.936;6.854;2023-12-04T00:19:57;14.57;;;11.30;;
3613;SDS011;1821;50.936;6.854;2023-12-04T00:20:39;13.50;;;11.10;;
3613;SDS011;1821;50.936;6.854;2023-12-04T00:21:21;14.70;;;10.70;;
3613;SDS011;1821;50.936;6.854;2023-12-04T00:22:03;17.75;;;12.05;;
3613;SDS011;1821;50.936;6.854;2023-12-04T00:22:46;16.45;;;12.48;;
3613;SDS011;1821;50.936;6.854;2023-12-04T00:23:28;16.13;;;12.15;;
3613;SDS011;1821;50.936;6.854;2023-12-04T00:24:10;14.90;;;11.60;;
3613;SDS011;1821;50.936;6.854;2023-12-04T00:24:53;16.02;;;11.82;;
3613;SDS011;1821;50.936;6.854;2023-12-04T00:25:35;16.25;;;11.88;;
3613;SDS011;1821;50.936;6.854;2023-12-04T00:26:17;17.05;;;11.90;;
3613;SDS011;1821;50.936;6.854;2023-12-04T00:26:59;18.00;;;12.10;;
3613;SDS011;1821;50.936;6.854;2023-12-04T00:27:44;14.90;;;10.93;;
3613;SDS011;1821;50.936;6.854;2023-12-04T00:28:27;15.80;;;11.48;;
3613;SDS011;1821;50.936;6.854;2023-12-04T00:29:10;16.48;;;11.70;;
3613;SDS011;1821;50.936;6.854;2023-12-04T00:29:55;15.85;;;11.75;;
3613;SDS011;1821;50.936;6.854;2023-12-04T00:30:38;15.30;;;11.80;;
3613;SDS011;1821;50.936;6.854;2023-12-04T00:31:20;14.32;;;11.13;;
3613;SDS011;1821;50.936;6.854;2023-12-04T00:32:02;14.57;;;11.40;;
3613;SDS011;1821;50.936;6.854;2023-12-04T00:32:44;15.35;;;11.73;;
3613;SDS011;1821;50.936;6.854;2023-12-04T00:33:27;15.32;;;11.77;;
3613;SDS011;1821;50.936;6.854;2023-12-04T00:34:10;16.35;;;11.73;;
3613;SDS011;1821;50.936;6.854;2023-12-04T00:34:53;15.52;;;10.70;;
3613;SDS011;1821;50.936;6.854;2023-12-04T00:35:35;15.45;;;10.77;;
3613;SDS011;1821;50.936;6.854;2023-12-04T00:36:17;15.60;;;11.43;;
3613;SDS011;1821;50.936;6.854;2023-12-04T00:37:01;15.50;;;11.25;;
3613;SDS011;1821;50.936;6.854;2023-12-04T00:37:43;16.75;;;11.82;;
3613;SDS011;1821;50.936;6.854;2023-12-04T00:38:25;14.80;;;11.32;;
3613;SDS011;1821;50.936;6.854;2023-12-04T00:39:08;17.85;;;11.23;;
3613;SDS011;1821;50.936;6.854;2023-12-04T00:39:49;17.27;;;11.85;;
3613;SDS011;1821;50.936;6.854;2023-12-04T00:40:32;17.80;;;11.90;;
3613;SDS011;1821;50.936;6.854;2023-12-04T00:41:15;17.65;;;11.88;;
3613;SDS011;1821;50.936;6.854;2023-12-04T00:41:57;17.38;;;11.90;;
3613;SDS011;1821;50.936;6.854;2023-12-04T00:42:40;17.77;;;12.52;;
3613;SDS011;1821;50.936;6.854;2023-12-04T00:43:22;16.77;;;11.55;;
3613;SDS011;1821;50.936;6.854;2023-12-04T00:44:04;15.00;;;10.82;;
3613;SDS011;1821;50.936;6.854;2023-12-04T00:44:46;14.95;;;11.10;;
3613;SDS011;1821;50.936;6.854;2023-12-04T00:45:28;16.17;;;11.52;;
3613;SDS011;1821;50.936;6.854;2023-12-04T00:46:11;16.35;;;12.10;;
3613;SDS011;1821;50.936;6.854;2023-12-04T00:46:53;15.93;;;12.10;;
3613;SDS011;1821;50.936;6.854;2023-12-04T00:47:35;15.52;;;12.00;;
3613;SDS011;1821;50.936;6.854;2023-12-04T00:48:18;14.90;;;11.30;;
3613;SDS011;1821;50.936;6.854;2023-12-04T00:49:00;17.50;;;11.70;;
3613;SDS011;1821;50.936;6.854;2023-12-04T00:49:43;15.82;;;11.25;;
3613;SDS011;1821;50.936;6.854;2023-12-04T00:50:25;15.85;;;11.55;;
3613;SDS011;1821;50.936;6.854;2023-12-04T00:51:07;15.15;;;11.00;;
3613;SDS011;1821;50.936;6.854;2023-12-04T00:51:50;15.10;;;10.50;;
3613;SDS011;1821;50.936;6.854;2023-12-04T00:52:32;15.63;;;11.20;;
3613;SDS011;1821;50.936;6.854;2023-12-04T00:53:15;15.27;;;11.35;;
3613;SDS011;1821;50.936;6.854;2023-12-04T00:53:57;15.63;;;12.05;;
3613;SDS011;1821;50.936;6.854;2023-12-04T00:54:39;16.40;;;11.75;;
3613;SDS011;1821;50.936;6.854;2023-12-04T00:55:22;16.35;;;11.02;;
3613;SDS011;1821;50.936;6.854;2023-12-04T00:56:05;16.17;;;10.82;;
3613;SDS011;1821;50.936;6.854;2023-12-04T00:56:48;14.82;;;10.25;;
3613;SDS011;1821;50.936;6.854;2023-12-04T00:57:30;15.95;;;11.38;;
3613;SDS011;1821;50.936;6.854;2023-12-04T00:58:12;16.52;;;11.32;;
3613;SDS011;1821;50.936;6.854;2023-12-04T00:58:54;14.80;;;10.50;;
3613;SDS011;1821;50.936;6.854;2023-12-04T00:59:37;14.00;;;11.13;;
3613;SDS011;1821;50.936;6.854;2023-12-04T01:00:19;15.75;;;11.80;;
3613;SDS011;1821;50.936;6.854;2023-12-04T01:01:01;16.05;;;11.93;;
3613;SDS011;1821;50.936;6.854;2023-12-04T01:01:45;16.52;;;11.48;;
3613;SDS011;1821;50.936;6.854;2023-12-04T01:02:28;14.73;;;10.88;;
3613;SDS011;1821;50.936;6.854;2023-12-04T01:03:10;15.55;;;11.70;;
3613;SDS011;1821;50.936;6.854;2023-12-04T01:03:53;14.85;;;11.65;;
3613;SDS011;1821;50.936;6.854;2023-12-04T01:04:36;14.85;;;10.65;;
3613;SDS011;1821;50.936;6.854;2023-12-04T01:05:22;13.18;;;10.27;;
3613;SDS011;1821;50.936;6.854;2023-12-04T01:06:03;15.82;;;12.15;;
3613;SDS011;1821;50.936;6.854;2023-12-04T01:06:45;15.13;;;11.95;;
3613;SDS011;1821;50.936;6.854;2023-12-04T01:07:28;15.60;;;11.50;;
3613;SDS011;1821;50.936;6.854;2023-12-04T01:08:10;15.40;;;11.30;;
3613;SDS011;1821;50.936;6.854;2023-12-04T01:08:53;14.07;;;10.98;;
3613;SDS011;1821;50.936;6.854;2023-12-04T01:09:35;15.25;;;10.85;;
3613;SDS011;1821;50.936;6.854;2023-12-04T01:10:18;13.10;;;10.18;;
3613;SDS011;1821;50.936;6.854;2023-12-04T01:10:59;13.80;;;10.50;;
3613;SDS011;1821;50.936;6.854;2023-12-04T01:11:42;14.98;;;10.90;;
3613;SDS011;1821;50.936;6.854;2023-12-04T01:12:24;13.55;;;11.43;;
3613;SDS011;1821;50.936;6.854;2023-12-04T01:13:06;13.15;;;10.90;;
3613;SDS011;1821;50.936;6.854;2023-12-04T01:13:48;15.10;;;10.55;;
3613;SDS011;1821;50.936;6.854;2023-12-04T01:14:31;15.50;;;10.50;;
3613;SDS011;1821;50.936;6.854;2023-12-04T01:15:14;15.25;;;10.43;;
3613;SDS011;1821;50.936;6.854;2023-12-04T01:15:56;15.18;;;10.65;;
3613;SDS011;1821;50.936;6.854;2023-12-04T01:16:39;15.93;;;11.57;;
3613;SDS011;1821;50.936;6.854;2023-12-04T01:17:21;14.52;;;11.13;;
3613;SDS011;1821;50.936;6.854;2023-12-04T01:18:04;13.23;;;10.50;;
3613;SDS011;1821;50.936;6.854;2023-12-04T01:18:46;14.50;;;11.07;;
3613;SDS011;1821;50.936;6.854;2023-12-04T01:19:30;14.05;;;10.40;;
3613;SDS011;1821;50.936;6.854;2023-12-04T01:20:12;14.88;;;10.85;;
3613;SDS011;1821;50.936;6.854;2023-12-04T01:20:54;14.73;;;10.75;;
3613;SDS011;1821;50.936;6.854;2023-12-04T01:21:39;14.63;;;10.25;;
3613;SDS011;1821;50.936;6.854;2023-12-04T01:22:21;15.15;;;10.60;;
3613;SDS011;1821;50.936;6.854;2023-12-04T01:23:03;14.98;;;10.63;;
3613;SDS011;1821;50.936;6.854;2023-12-04T01:23:45;15.00;;;11.15;;
3613;SDS011;1821;50.936;6.854;2023-12-04T01:24:28;14.30;;;10.95;;
3613;SDS011;1821;50.936;6.854;2023-12-04T01:25:10;17.75;;;11.45;;
3613;SDS011;1821;50.936;6.854;2023-12-04T01:25:53;15.02;;;11.02;;
3613;SDS011;1821;50.936;6.854;2023-12-04T01:26:35;16.60;;;12.00;;
3613;SDS011;1821;50.936;6.854;2023-12-04T01:27:17;13.90;;;11.10;;
3613;SDS011;1821;50.936;6.854;2023-12-04T01:28:00;14.43;;;11.20;;
3613;SDS011;1821;50.936;6.854;2023-12-04T01:28:42;13.80;;;10.50;;
3613;SDS011;1821;50.936;6.854;2023-12-04T01:29:24;14.02;;;10.05;;
3613;SDS011;1821;50.936;6.854;2023-12-04T01:30:07;14.13;;;10.38;;
3613;SDS011;1821;50.936;6.854;2023-12-04T01:30:50;12.93;;;10.40;;
3613;SDS011;1821;50.936;6.854;2023-12-04T01:31:33;14.88;;;11.15;;
3613;SDS011;1821;50.936;6.854;2023-12-04T01:32:15;15.88;;;12.52;;
3613;SDS011;1821;50.936;6.854;2023-12-04T01:32:57;14.68;;;11.60;;
3613;SDS011;1821;50.936;6.854;2023-12-04T01:33:39;13.98;;;11.75;;
3613;SDS011;1821;50.936;6.854;2023-12-04T01:34:21;12.32;;;10.43;;
3613;SDS011;1821;50.936;6.854;2023-12-04T01:35:04;15.00;;;11.00;;
3613;SDS011;1821;50.936;6.854;2023-12-04T01:35:50;14.93;;;10.90;;
3613;SDS011;1821;50.936;6.854;2023-12-04T01:36:32;16.42;;;11.57;;
3613;SDS011;1821;50.936;6.854;2023-12-04T01:37:14;15.20;;;11.10;;
3613;SDS011;1821;50.936;6.854;2023-12-04T01:37:57;13.05;;;10.40;;
3613;SDS011;1821;50.936;6.854;2023-12-04T01:38:39;13.82;;;10.80;;
3613;SDS011;1821;50.936;6.854;2023-12-04T01:39:21;13.15;;;10.30;;
3613;SDS011;1821;50.936;6.854;2023-12-04T01:40:03;14.30;;;11.10;;
3613;SDS011;1821;50.936;6.854;2023-12-04T01:40:48;15.40;;;11.50;;
3613;SDS011;1821;50.936;6.854;2023-12-04T01:41:31;12.93;;;10.48;;
3613;SDS011;1821;50.936;6.854;2023-12-04T01:42:13;13.13;;;10.63;;
3613;SDS011;1821;50.936;6.854;2023-12-04T01:42:55;15.07;;;10.93;;
3613;SDS011;1821;50.936;6.854;2023-12-04T01:43:37;14.57;;;10.40;;
3613;SDS011;1821;50.936;6.854;2023-12-04T01:44:20;14.20;;;10.38;;
3613;SDS011;1821;50.936;6.854;2023-12-04T01:45:03;13.48;;;10.93;;
3613;SDS011;1821;50.936;6.854;2023-12-04T01:45:46;15.18;;;11.30;;
3613;SDS011;1821;50.936;6.854;2023-12-04T01:46:29;13.70;;;10.70;;
3613;SDS011;1821;50.936;6.854;2023-12-04T01:47:11;15.00;;;10.55;;
3613;SDS011;1821;50.936;6.854;2023-12-04T01:47:54;14.32;;;10.20;;
3613;SDS011;1821;50.936;6.854;2023-12-04T01:48:36;14.13;;;10.98;;
3613;SDS011;1821;50.936;6.854;2023-12-04T01:49:19;14.68;;;11.38;;
3613;SDS011;1821;50.936;6.854;2023-12-04T01:50:02;14.85;;;11.30;;
3613;SDS011;1821;50.936;6.854;2023-12-04T01:50:45;13.00;;;9.95;;
3613;SDS011;1821;50.936;6.854;2023-12-04T01:51:27;13.98;;;11.10;;
3613;SDS011;1821;50.936;6.854;2023-12-04T01:52:11;16.00;;;11.50;;
3613;SDS011;1821;50.936;6.854;2023-12-04T01:52:53;14.10;;;10.30;;
3613;SDS011;1821;50.936;6.854;2023-12-04T01:53:36;13.70;;;10.15;;
3613;SDS011;1821;50.936;6.854;2023-12-04T01:54:21;15.48;;;11.18;;
3613;SDS011;1821;50.936;6.854;2023-12-04T01:55:04;17.52;;;12.05;;
3613;SDS011;1821;50.936;6.854;2023-12-04T01:55:47;17.00;;;10.88;;
3613;SDS011;1821;50.936;6.854;2023-12-04T01:56:30;15.52;;;11.23;;
3613;SDS011;1821;50.936;6.854;2023-12-04T01:57:12;16.42;;;10.88;;
3613;SDS011;1821;50.936;6.854;2023-12-04T01:57:57;13.30;;;10.70;;
3613;SDS011;1821;50.936;6.854;2023-12-04T01:58:43;14.80;;;9.82;;
3613;SDS011;1821;50.936;6.854;2023-12-04T01:59:26;12.68;;;10.07;;
3613;SDS011;1821;50.936;6.854;2023-12-04T02:00:09;14.60;;;11.10;;
3613;SDS011;1821;50.936;6.854;2023-12-04T02:00:53;12.85;;;10.02;;
3613;SDS011;1821;50.936;6.854;2023-12-04T02:01:35;13.00;;;10.35;;
3613;SDS011;1821;50.936;6.854;2023-12-04T02:02:21;16.42;;;10.93;;
3613;SDS011;1821;50.936;6.854;2023-12-04T02:03:03;14.48;;;10.52;;
3613;SDS011;1821;50.936;6.854;2023-12-04T02:03:45;14.63;;;11.23;;
3613;SDS011;1821;50.936;6.854;2023-12-04T02:04:28;14.45;;;11.20;;
3613;SDS011;1821;50.936;6.854;2023-12-04T02:05:10;13.65;;;10.13;;
3613;SDS011;1821;50.936;6.854;2023-12-04T02:05:53;13.13;;;10.32;;
3613;SDS011;1821;50.936;6.854;2023-12-04T02:06:36;15.40;;;11.38;;
3613;SDS011;1821;50.936;6.854;2023-12-04T02:07:22;14.27;;;10.13;;
3613;SDS011;1821;50.936;6.854;2023-12-04T02:08:04;13.13;;;10.50;;
3613;SDS011;1821;50.936;6.854;2023-12-04T02:08:46;12.40;;;9.90;;
3613;SDS011;1821;50.936;6.854;2023-12-04T02:09:29;12.95;;;9.93;;
3613;SDS011;1821;50.936;6.854;2023-12-04T02:10:12;12.45;;;10.43;;
3613;SDS011;1821;50.936;6.854;2023-12-04T02:10:55;11.57;;;9.70;;
3613;SDS011;1821;50.936;6.854;2023-12-04T02:11:38;13.73;;;10.90;;
3613;SDS011;1821;50.936;6.854;2023-12-04T02:12:21;14.18;;;10.90;;
3613;SDS011;1821;50.936;6.854;2023-12-04T02:13:06;12.93;;;10.50;;
3613;SDS011;1821;50.936;6.854;2023-12-04T02:13:51;17.20;;;10.90;;
3613;SDS011;1821;50.936;6.854;2023-12-04T02:14:34;15.27;;;11.10;;
3613;SDS011;1821;50.936;6.854;2023-12-04T02:15:16;15.65;;;11.20;;
3613;SDS011;1821;50.936;6.854;2023-12-04T02:16:00;15.27;;;11.88;;
3613;SDS011;1821;50.936;6.854;2023-12-04T02:16:44;13.50;;;11.23;;
3613;SDS011;1821;50.936;6.854;2023-12-04T02:17:27;12.15;;;10.13;;
3613;SDS011;1821;50.936;6.854;2023-12-04T02:18:10;12.95;;;11.40;;
3613;SDS011;1821;50.936;6.854;2023-12-04T02:18:53;13.65;;;11.40;;
3613;SDS011;1821;50.936;6.854;2023-12-04T02:19:35;15.20;;;11.80;;
3613;SDS011;1821;50.936;6.854;2023-12-04T02:20:18;15.25;;;11.27;;
3613;SDS011;1821;50.936;6.854;2023-12-04T02:21:00;13.82;;;10.70;;
3613;SDS011;1821;50.936;6.854;2023-12-04T02:21:43;13.98;;;10.75;;
3613;SDS011;1821;50.936;6.854;2023-12-04T02:22:25;14.80;;;10.98;;
3613;SDS011;1821;50.936;6.854;2023-12-04T02:23:08;14.38;;;10.52;;
3613;SDS011;1821;50.936;6.854;2023-12-04T02:23:51;12.57;;;9.50;;
3613;SDS011;1821;50.936;6.854;2023-12-04T02:24:34;12.77;;;10.05;;
3613;SDS011;1821;50.936;6.854;2023-12-04T02:25:19;13.32;;;10.30;;
3613;SDS011;1821;50.936;6.854;2023-12-04T02:26:16;14.48;;;10.90;;
3613;SDS011;1821;50.936;6.854;2023-12-04T02:27:17;13.88;;;10.63;;
3613;SDS011;1821;50.936;6.854;2023-12-04T02:28:00;12.60;;;10.30;;
3613;SDS011;1821;50.936;6.854;2023-12-04T02:28:46;12.65;;;10.02;;
3613;SDS011;1821;50.936;6.854;2023-12-04T02:29:39;13.48;;;10.60;;
3613;SDS011;1821;50.936;6.854;2023-12-04T02:30:24;12.65;;;10.23;;
3613;SDS011;1821;50.936;6.854;2023-12-04T02:31:07;14.68;;;10.55;;
3613;SDS011;1821;50.936;6.854;2023-12-04T02:31:51;14.68;;;10.75;;
3613;SDS011;1821;50.936;6.854;2023-12-04T02:32:35;14.55;;;10.98;;
3613;SDS011;1821;50.936;6.854;2023-12-04T02:33:21;15.20;;;11.23;;
3613;SDS011;1821;50.936;6.854;2023-12-04T02:34:06;13.57;;;10.48;;
3613;SDS011;1821;50.936;6.854;2023-12-04T02:34:50;12.52;;;10.00;;
3613;SDS011;1821;50.936;6.854;2023-12-04T02:35:32;15.02;;;10.30;;
3613;SDS011;1821;50.936;6.854;2023-12-04T02:36:15;13.88;;;10.15;;
3613;SDS011;1821;50.936;6.854;2023-12-04T02:36:59;12.98;;;9.57;;
3613;SDS011;1821;50.936;6.854;2023-12-04T02:37:41;14.98;;;10.85;;
3613;SDS011;1821;50.936;6.854;2023-12-04T02:38:24;15.15;;;10.05;;
3613;SDS011;1821;50.936;6.854;2023-12-04T02:39:06;13.63;;;9.82;;
3613;SDS011;1821;50.936;6.854;2023-12-04T02:39:51;13.65;;;10.50;;
3613;SDS011;1821;50.936;6.854;2023-12-04T02:40:36;13.38;;;10.63;;
3613;SDS011;1821;50.936;6.854;2023-12-04T02:41:19;13.05;;;10.45;;
3613;SDS011;1821;50.936;6.854;2023-12-04T02:42:01;12.70;;;10.15;;
3613;SDS011;1821;50.936;6.854;2023-12-04T02:42:44;14.48;;;10.77;;
3613;SDS011;1821;50.936;6.854;2023-12-04T02:43:27;15.38;;;11.02;;
3613;SDS011;1821;50.936;6.854;2023-12-04T02:44:09;14.50;;;10.90;;
3613;SDS011;1821;50.936;6.854;2023-12-04T02:44:51;12.75;;;9.93;;
3613;SDS011;1821;50.936;6.854;2023-12-04T02:45:34;14.70;;;10.75;;
3613;SDS011;1821;50.936;6.854;2023-12-04T02:46:16;13.57;;;10.57;;
3613;SDS011;1821;50.936;6.854;2023-12-04T02:47:01;13.40;;;10.40;;
3613;SDS011;1821;50.936;6.854;2023-12-04T02:47:43;12.38;;;9.68;;
3613;SDS011;1821;50.936;6.854;2023-12-04T02:48:25;11.80;;;9.98;;
3613;SDS011;1821;50.936;6.854;2023-12-04T02:49:08;12.38;;;10.40;;
3613;SDS011;1821;50.936;6.854;2023-12-04T02:49:50;11.70;;;9.52;;
3613;SDS011;1821;50.936;6.854;2023-12-04T02:50:34;14.18;;;10.43;;
3613;SDS011;1821;50.936;6.854;2023-12-04T02:51:16;13.88;;;10.13;;
3613;SDS011;1821;50.936;6.854;2023-12-04T02:51:58;13.98;;;10.05;;
3613;SDS011;1821;50.936;6.854;2023-12-04T02:52:41;13.05;;;9.75;;
3613;SDS011;1821;50.936;6.854;2023-12-04T02:53:23;12.35;;;9.77;;
3613;SDS011;1821;50.936;6.854;2023-12-04T02:54:06;13.27;;;10.75;;
3613;SDS011;1821;50.936;6.854;2023-12-04T02:54:48;14.00;;;10.90;;
3613;SDS011;1821;50.936;6.854;2023-12-04T02:55:31;13.02;;;10.05;;
3613;SDS011;1821;50.936;6.854;2023-12-04T02:56:13;12.80;;;9.73;;
3613;SDS011;1821;50.936;6.854;2023-12-04T02:56:55;14.55;;;10.57;;
3613;SDS011;1821;50.936;6.854;2023-12-04T02:57:37;13.18;;;10.32;;
3613;SDS011;1821;50.936;6.854;2023-12-04T02:58:20;13.50;;;9.95;;
3613;SDS011;1821;50.936;6.854;2023-12-04T02:59:02;14.77;;;10.25;;
3613;SDS011;1821;50.936;6.854;2023-12-04T02:59:44;14.57;;;10.10;;
3613;SDS011;1821;50.936;6.854;2023-12-04T03:00:26;13.27;;;9.75;;
3613;SDS011;1821;50.936;6.854;2023-12-04T03:01:08;12.93;;;10.25;;
3613;SDS011;1821;50.936;6.854;2023-12-04T03:01:51;14.52;;;10.40;;
3613;SDS011;1821;50.936;6.854;2023-12-04T03:02:33;12.23;;;9.40;;
3613;SDS011;1821;50.936;6.854;2023-12-04T03:03:15;13.10;;;9.80;;
3613;SDS011;1821;50.936;6.854;2023-12-04T03:03:58;13.38;;;10.05;;
3613;SDS011;1821;50.936;6.854;2023-12-04T03:04:40;13.60;;;10.10;;
3613;SDS011;1821;50.936;6.854;2023-12-04T03:05:23;14.23;;;9.80;;
3613;SDS011;1821;50.936;6.854;2023-12-04T03:06:05;12.88;;;9.68;;
3613;SDS011;1821;50.936;6.854;2023-12-04T03:06:48;14.75;;;10.43;;
3613;SDS011;1821;50.936;6.854;2023-12-04T03:07:30;12.57;;;9.60;;
3613;SDS011;1821;50.936;6.854;2023-12-04T03:08:12;11.80;;;9.77;;
3613;SDS011;1821;50.936;6.854;2023-12-04T03:08:55;12.43;;;9.98;;
3613;SDS011;1821;50.936;6.854;2023-12-04T03:09:37;14.20;;;9.95;;
3613;SDS011;1821;50.936;6.854;2023-12-04T03:10:29;13.65;;;10.57;;
3613;SDS011;1821;50.936;6.854;2023-12-04T03:11:12;12.55;;;10.13;;
3613;SDS011;1821;50.936;6.854;2023-12-04T03:11:54;13.15;;;9.65;;
3613;SDS011;1821;50.936;6.854;2023-12-04T03:12:36;12.35;;;9.60;;
3613;SDS011;1821;50.936;6.854;2023-12-04T03:13:19;12.25;;;9.60;;
3613;SDS011;1821;50.936;6.854;2023-12-04T03:14:01;12.70;;;9.40;;
3613;SDS011;1821;50.936;6.854;2023-12-04T03:14:43;10.80;;;9.00;;
3613;SDS011;1821;50.936;6.854;2023-12-04T03:15:25;13.93;;;10.45;;
3613;SDS011;1821;50.936;6.854;2023-12-04T03:16:20;13.13;;;10.02;;
3613;SDS011;1821;50.936;6.854;2023-12-04T03:17:02;11.25;;;9.38;;
3613;SDS011;1821;50.936;6.854;2023-12-04T03:17:44;11.15;;;9.20;;
3613;SDS011;1821;50.936;6.854;2023-12-04T03:18:26;12.55;;;9.15;;
3613;SDS011;1821;50.936;6.854;2023-12-04T03:19:12;11.63;;;9.10;;
3613;SDS011;1821;50.936;6.854;2023-12-04T03:19:55;12.85;;;10.38;;
3613;SDS011;1821;50.936;6.854;2023-12-04T03:20:37;12.18;;;10.18;;
3613;SDS011;1821;50.936;6.854;2023-12-04T03:21:19;12.88;;;9.88;;
3613;SDS011;1821;50.936;6.854;2023-12-04T03:22:02;14.70;;;10.65;;
3613;SDS011;1821;50.936;6.854;2023-12-04T03:22:44;13.10;;;10.00;;
3613;SDS011;1821;50.936;6.854;2023-12-04T03:23:27;12.88;;;9.98;;
3613;SDS011;1821;50.936;6.854;2023-12-04T03:24:09;12.68;;;10.05;;
3613;SDS011;1821;50.936;6.854;2023-12-04T03:24:51;12.88;;;10.27;;
3613;SDS011;1821;50.936;6.854;2023-12-04T03:25:34;13.15;;;9.43;;
3613;SDS011;1821;50.936;6.854;2023-12-04T03:26:16;14.48;;;9.50;;
3613;SDS011;1821;50.936;6.854;2023-12-04T03:26:58;14.32;;;10.02;;
3613;SDS011;1821;50.936;6.854;2023-12-04T03:27:41;13.70;;;10.35;;
3613;SDS011;1821;50.936;6.854;2023-12-04T03:28:23;13.57;;;10.20;;
3613;SDS011;1821;50.936;6.854;2023-12-04T03:29:05;12.95;;;10.20;;
3613;SDS011;1821;50.936;6.854;2023-12-04T03:29:48;13.35;;;10.60;;
3613;SDS011;1821;50.936;6.854;2023-12-04T03:30:30;15.00;;;10.50;;
3613;SDS011;1821;50.936;6.854;2023-12-04T03:31:14;13.93;;;10.35;;
3613;SDS011;1821;50.936;6.854;2023-12-04T03:31:57;13.32;;;10.18;;
3613;SDS011;1821;50.936;6.854;2023-12-04T03:32:39;13.98;;;9.93;;
3613;SDS011;1821;50.936;6.854;2023-12-04T03:33:21;14.45;;;9.95;;
3613;SDS011;1821;50.936;6.854;2023-12-04T03:34:04;14.07;;;9.90;;
3613;SDS011;1821;50.936;6.854;2023-12-04T03:34:46;13.52;;;9.73;;
3613;SDS011;1821;50.936;6.854;2023-12-04T03:35:29;14.10;;;10.35;;
3613;SDS011;1821;50.936;6.854;2023-12-04T03:36:11;13.20;;;10.27;;
3613;SDS011;1821;50.936;6.854;2023-12-04T03:36:53;12.75;;;9.80;;
3613;SDS011;1821;50.936;6.854;2023-12-04T03:37:36;13.52;;;9.90;;
3613;SDS011;1821;50.936;6.854;2023-12-04T03:38:18;14.88;;;10.40;;
3613;SDS011;1821;50.936;6.854;2023-12-04T03:39:01;13.57;;;10.23;;
3613;SDS011;1821;50.936;6.854;2023-12-04T03:39:44;12.25;;;9.52;;
3613;SDS011;1821;50.936;6.854;2023-12-04T03:40:26;13.80;;;10.38;;
3613;SDS011;1821;50.936;6.854;2023-12-04T03:41:15;14.35;;;10.32;;
3613;SDS011;1821;50.936;6.854;2023-12-04T03:41:58;14.68;;;10.25;;
3613;SDS011;1821;50.936;6.854;2023-12-04T03:42:40;15.15;;;9.80;;
3613;SDS011;1821;50.936;6.854;2023-12-04T03:43:23;13.50;;;10.40;;
3613;SDS011;1821;50.936;6.854;2023-12-04T03:44:05;13.20;;;9.18;;
3613;SDS011;1821;50.936;6.854;2023-12-04T03:44:50;13.10;;;9.68;;
3613;SDS011;1821;50.936;6.854;2023-12-04T03:45:32;12.27;;;9.40;;
3613;SDS011;1821;50.936;6.854;2023-12-04T03:46:14;13.63;;;10.07;;
3613;SDS011;1821;50.936;6.854;2023-12-04T03:46:59;12.25;;;10.30;;
3613;SDS011;1821;50.936;6.854;2023-12-04T03:47:41;13.38;;;10.00;;
3613;SDS011;1821;50.936;6.854;2023-12-04T03:48:24;13.02;;;9.40;;
3613;SDS011;1821;50.936;6.854;2023-12-04T03:49:06;12.15;;;9.88;;
3613;SDS011;1821;50.936;6.854;2023-12-04T03:49:48;13.15;;;9.70;;
3613;SDS011;1821;50.936;6.854;2023-12-04T03:50:31;12.32;;;9.65;;
3613;SDS011;1821;50.936;6.854;2023-12-04T03:51:13;12.50;;;9.57;;
3613;SDS011;1821;50.936;6.854;2023-12-04T03:51:55;12.45;;;9.27;;
3613;SDS011;1821;50.936;6.854;2023-12-04T03:52:38;12.90;;;10.00;;
3613;SDS011;1821;50.936;6.854;2023-12-04T03:53:20;12.13;;;9.50;;
3613;SDS011;1821;50.936;6.854;2023-12-04T03:54:02;12.40;;;9.85;;
3613;SDS011;1821;50.936;6.854;2023-12-04T03:54:45;12.40;;;9.90;;
3613;SDS011;1821;50.936;6.854;2023-12-04T03:55:27;12.32;;;10.43;;
3613;SDS011;1821;50.936;6.854;2023-12-04T03:56:10;13.52;;;9.80;;
3613;SDS011;1821;50.936;6.854;2023-12-04T03:56:53;15.07;;;10.35;;
3613;SDS011;1821;50.936;6.854;2023-12-04T03:57:35;12.80;;;10.30;;
3613;SDS011;1821;50.936;6.854;2023-12-04T03:58:18;14.00;;;10.32;;
3613;SDS011;1821;50.936;6.854;2023-12-04T03:59:00;14.13;;;10.25;;
3613;SDS011;1821;50.936;6.854;2023-12-04T03:59:43;12.98;;;9.95;;
3613;SDS011;1821;50.936;6.854;2023-12-04T04:00:26;12.95;;;10.20;;
3613;SDS011;1821;50.936;6.854;2023-12-04T04:01:08;12.43;;;9.73;;
3613;SDS011;1821;50.936;6.854;2023-12-04T04:01:51;13.27;;;10.60;;
3613;SDS011;1821;50.936;6.854;2023-12-04T04:02:33;13.25;;;10.27;;
3613;SDS011;1821;50.936;6.854;2023-12-04T04:03:16;13.13;;;10.00;;
3613;SDS011;1821;50.936;6.854;2023-12-04T04:03:59;13.00;;;10.45;;
3613;SDS011;1821;50.936;6.854;2023-12-04T04:04:41;14.48;;;11.25;;
3613;SDS011;1821;50.936;6.854;2023-12-04T04:05:24;13.15;;;10.23;;
3613;SDS011;1821;50.936;6.854;2023-12-04T04:06:06;13.75;;;10.52;;
3613;SDS011;1821;50.936;6.854;2023-12-04T04:06:49;14.32;;;10.25;;
3613;SDS011;1821;50.936;6.854;2023-12-04T04:07:31;14.50;;;10.00;;
3613;SDS011;1821;50.936;6.854;2023-12-04T04:08:14;14.48;;;10.50;;
3613;SDS011;1821;50.936;6.854;2023-12-04T04:08:56;13.25;;;10.45;;
3613;SDS011;1821;50.936;6.854;2023-12-04T04:09:38;14.50;;;11.40;;
3613;SDS011;1821;50.936;6.854;2023-12-04T04:10:23;15.23;;;10.90;;
3613;SDS011;1821;50.936;6.854;2023-12-04T04:11:05;14.23;;;10.40;;
3613;SDS011;1821;50.936;6.854;2023-12-04T04:11:48;15.20;;;10.40;;
3613;SDS011;1821;50.936;6.854;2023-12-04T04:12:30;14.45;;;10.35;;
3613;SDS011;1821;50.936;6.854;2023-12-04T04:13:13;14.52;;;10.23;;
3613;SDS011;1821;50.936;6.854;2023-12-04T04:13:55;15.45;;;10.55;;
3613;SDS011;1821;50.936;6.854;2023-12-04T04:14:37;13.73;;;11.18;;
3613;SDS011;1821;50.936;6.854;2023-12-04T04:15:20;14.95;;;11.25;;
3613;SDS011;1821;50.936;6.854;2023-12-04T04:16:02;14.82;;;10.60;;
3613;SDS011;1821;50.936;6.854;2023-12-04T04:16:45;13.70;;;10.00;;
3613;SDS011;1821;50.936;6.854;2023-12-04T04:17:27;14.30;;;10.40;;
3613;SDS011;1821;50.936;6.854;2023-12-04T04:18:10;13.93;;;10.30;;
3613;SDS011;1821;50.936;6.854;2023-12-04T04:18:55;13.77;;;10.90;;